createdAt,value
2023-01-08T00:03:03.656Z,101696.17
2023-01-08T00:06:09.311Z,101691.44
2023-01-08T00:09:15.244Z,101703.11
2023-01-08T00:12:20.439Z,101700.66
2023-01-08T00:15:26.184Z,101697.45
2023-01-08T00:18:33.584Z,101699.19
2023-01-08T00:21:38.769Z,101703.38
2023-01-08T00:24:45.744Z,101701.57
2023-01-08T00:27:51.838Z,101699.53
2023-01-08T00:30:51.180Z,101705.03
2023-01-08T00:33:56.920Z,101706.09
2023-01-08T00:37:02.073Z,101708.56
2023-01-08T00:40:07.509Z,101696.96
2023-01-08T00:43:12.650Z,101698.20
2023-01-08T00:46:18.755Z,101694.55
2023-01-08T00:49:24.769Z,101700.21
2023-01-08T00:52:29.874Z,101699.91
2023-01-08T00:55:36.771Z,101700.48
2023-01-08T00:58:41.340Z,101707.48
2023-01-08T01:01:47.843Z,101712.42
2023-01-08T01:04:53.707Z,101710.84
2023-01-08T01:07:59.856Z,101711.78
2023-01-08T01:11:06.230Z,101705.66
2023-01-08T01:14:11.734Z,101709.08
2023-01-08T01:17:17.550Z,101712.52
2023-01-08T01:20:24.359Z,101712.21
2023-01-08T01:23:29.819Z,101717.91
2023-01-08T01:26:36.720Z,101713.64
2023-01-08T01:29:43.021Z,101706.23
2023-01-08T01:32:41.191Z,101702.45
2023-01-08T01:35:46.749Z,101694.77
2023-01-08T01:38:51.763Z,101695.86
2023-01-08T01:42:00.641Z,101697.76
2023-01-08T01:45:05.676Z,101706.90
2023-01-08T01:48:14.897Z,101701.67
2023-01-08T01:51:20.400Z,101696.72
2023-01-08T01:54:26.274Z,101691.23
2023-01-08T01:57:31.498Z,101701.02
2023-01-08T02:00:37.321Z,101693.48
2023-01-08T02:03:47.151Z,101703.11
2023-01-08T02:07:31.703Z,101696.38
2023-01-08T02:10:57.218Z,101703.72
2023-01-08T02:14:10.777Z,101699.67
2023-01-08T02:17:20.813Z,101705.39
2023-01-08T02:20:31.084Z,101701.13
2023-01-08T02:23:47.433Z,101698.37
2023-01-08T02:26:54.426Z,101688.72
2023-01-08T02:29:59.716Z,101704.59
2023-01-08T02:33:05.625Z,101704.79
2023-01-08T02:36:46.519Z,101698.89
2023-01-08T02:40:09.370Z,101699.07
2023-01-08T02:43:31.305Z,101698.16
2023-01-08T02:46:40.310Z,101703.97
2023-01-08T02:49:46.677Z,101701.61
2023-01-08T02:53:03.041Z,101703.51
2023-01-08T02:56:11.969Z,101709.17
2023-01-08T02:59:19.589Z,101697.80
2023-01-08T03:02:26.272Z,101696.16
2023-01-08T03:05:40.727Z,101711.27
2023-01-08T03:08:48.884Z,101715.34
2023-01-08T03:12:10.313Z,101721.91
2023-01-08T03:15:22.095Z,101717.34
2023-01-08T03:18:29.741Z,101710.84
2023-01-08T03:21:34.807Z,101715.06
2023-01-08T03:24:43.237Z,101721.83
2023-01-08T03:27:49.734Z,101710.94
2023-01-08T03:34:10.789Z,101708.11
2023-01-08T03:37:17.456Z,101695.27
2023-01-08T03:40:30.945Z,101705.81
2023-01-08T03:43:37.333Z,101707.51
2023-01-08T03:46:48.502Z,101710.59
2023-01-08T03:49:54.096Z,101718.67
2023-01-08T03:53:00.838Z,101715.69
2023-01-08T03:56:07.289Z,101731.14
2023-01-08T03:59:13.744Z,101722.39
2023-01-08T04:02:19.563Z,101722.39
2023-01-08T04:05:25.358Z,101734.45
2023-01-08T04:08:31.267Z,101728.77
2023-01-08T04:11:36.911Z,101742.37
2023-01-08T04:14:45.993Z,101733.12
2023-01-08T04:17:52.351Z,101742.31
2023-01-08T04:21:02.718Z,101744.22
2023-01-08T04:24:06.398Z,101733.62
2023-01-08T04:27:12.543Z,101742.66
2023-01-08T04:30:18.274Z,101737.17
2023-01-08T04:33:24.001Z,101739.32
2023-01-08T04:36:29.783Z,101736.20
2023-01-08T04:39:34.731Z,101729.21
2023-01-08T04:42:40.878Z,101725.29
2023-01-08T04:45:45.610Z,101736.42
2023-01-08T04:48:52.345Z,101736.20
2023-01-08T04:51:58.304Z,101742.19
2023-01-08T04:54:57.708Z,101746.41
2023-01-08T04:58:03.444Z,101749.74
2023-01-08T05:01:08.452Z,101753.94
2023-01-08T05:04:17.235Z,101756.41
2023-01-08T05:07:22.769Z,101754.66
2023-01-08T05:10:28.511Z,101755.80
2023-01-08T05:13:34.166Z,101750.38
2023-01-08T05:16:41.230Z,101754.90
2023-01-08T05:19:46.900Z,101753.20
2023-01-08T05:22:52.265Z,101756.63
2023-01-08T05:25:58.815Z,101756.93
2023-01-08T05:29:05.308Z,101758.73
2023-01-08T05:32:10.786Z,101765.73
2023-01-08T05:35:16.971Z,101772.60
2023-01-08T05:38:22.734Z,101763.39
2023-01-08T05:41:27.645Z,101773.63
2023-01-08T05:44:33.595Z,101782.48
2023-01-08T05:47:40.084Z,101781.36
2023-01-08T05:50:39.002Z,101780.13
2023-01-08T05:53:31.883Z,101778.71
2023-01-08T05:56:30.455Z,101790.67
2023-01-08T05:59:36.885Z,101792.24
2023-01-08T06:02:42.161Z,101797.44
2023-01-08T06:05:47.811Z,101797.84
2023-01-08T06:08:53.632Z,101795.53
2023-01-08T06:12:00.676Z,101796.77
2023-01-08T06:15:06.191Z,101796.31
2023-01-08T06:18:11.632Z,101801.92
2023-01-08T06:21:20.103Z,101796.48
2023-01-08T06:24:25.065Z,101792.84
2023-01-08T06:27:31.155Z,101797.62
2023-01-08T06:30:36.869Z,101795.55
2023-01-08T06:33:35.820Z,101785.47
2023-01-08T06:36:41.680Z,101792.17
2023-01-08T06:39:48.241Z,101802.27
2023-01-08T06:42:54.672Z,101802.02
2023-01-08T06:46:02.155Z,101790.59
2023-01-08T06:49:07.564Z,101786.77
2023-01-08T06:52:07.543Z,101783.06
2023-01-08T06:55:14.078Z,101782.73
2023-01-08T06:58:19.145Z,101784.02
2023-01-08T07:01:29.804Z,101777.11
2023-01-08T07:04:35.330Z,101783.69
2023-01-08T07:07:41.219Z,101793.87
2023-01-08T07:10:49.249Z,101796.79
2023-01-08T07:13:54.391Z,101794.88
2023-01-08T07:17:00.296Z,101794.80
2023-01-08T07:20:05.629Z,101784.92
2023-01-08T07:23:06.882Z,101784.72
2023-01-08T07:26:18.242Z,101790.61
2023-01-08T07:29:24.056Z,101804.23
2023-01-08T07:32:29.455Z,101803.48
2023-01-08T07:35:35.127Z,101804.98
2023-01-08T07:38:40.264Z,101808.45
2023-01-08T07:41:45.951Z,101811.53
2023-01-08T07:44:51.709Z,101813.31
2023-01-08T07:47:57.979Z,101813.42
2023-01-08T07:51:03.351Z,101818.66
2023-01-08T07:54:08.368Z,101822.67
2023-01-08T07:57:14.082Z,101823.00
2023-01-08T08:00:21.596Z,101823.75
2023-01-08T08:03:26.642Z,101831.62
2023-01-08T08:06:33.194Z,101841.33
2023-01-08T08:09:38.339Z,101838.44
2023-01-08T08:12:43.988Z,101848.83
2023-01-08T08:15:50.770Z,101844.96
2023-01-08T08:18:57.074Z,101846.16
2023-01-08T08:22:02.599Z,101851.93
2023-01-08T08:25:08.976Z,101850.98
2023-01-08T08:28:15.081Z,101850.02
2023-01-08T08:31:22.596Z,101844.57
2023-01-08T08:34:29.474Z,101837.09
2023-01-08T08:37:35.197Z,101836.63
2023-01-08T08:40:41.834Z,101837.22
2023-01-08T08:43:47.421Z,101835.66
2023-01-08T08:46:53.887Z,101824.78
2023-01-08T08:49:53.650Z,101827.57
2023-01-08T08:53:00.084Z,101817.69
2023-01-08T08:56:06.359Z,101823.25
2023-01-08T08:59:13.163Z,101816.84
2023-01-08T09:02:19.653Z,101818.17
2023-01-08T09:05:26.262Z,101823.73
2023-01-08T09:08:32.341Z,101824.56
2023-01-08T09:11:37.697Z,101807.39
2023-01-08T09:14:43.400Z,101814.00
2023-01-08T09:17:50.258Z,101810.39
2023-01-08T09:20:56.836Z,101818.90
2023-01-08T09:23:57.768Z,101815.08
2023-01-08T09:27:04.208Z,101808.12
2023-01-08T09:30:09.536Z,101802.11
2023-01-08T09:33:16.555Z,101805.23
2023-01-08T09:36:27.295Z,101801.34
2023-01-08T09:39:34.890Z,101803.22
2023-01-08T09:42:42.474Z,101789.88
2023-01-08T09:45:50.524Z,101792.05
2023-01-08T09:48:57.792Z,101784.69
2023-01-08T09:52:03.417Z,101787.89
2023-01-08T09:55:09.107Z,101784.16
2023-01-08T09:58:15.549Z,101774.77
2023-01-08T10:01:22.216Z,101775.25
2023-01-08T10:04:35.735Z,101763.91
2023-01-08T10:07:43.792Z,101765.61
2023-01-08T10:10:50.677Z,101752.20
2023-01-08T10:13:59.858Z,101755.52
2023-01-08T10:17:20.406Z,101755.29
2023-01-08T10:20:29.198Z,101750.09
2023-01-08T10:23:34.992Z,101752.03
2023-01-08T10:26:52.621Z,101751.38
2023-01-08T10:29:59.564Z,101749.09
2023-01-08T10:33:08.443Z,101742.06
2023-01-08T10:36:20.081Z,101741.97
2023-01-08T10:39:33.003Z,101746.83
2023-01-08T10:42:38.481Z,101747.33
2023-01-08T10:45:44.020Z,101744.29
2023-01-08T10:49:01.587Z,101737.73
2023-01-08T10:52:08.405Z,101736.11
2023-01-08T10:55:47.314Z,101734.59
2023-01-08T10:58:57.534Z,101744.86
2023-01-08T11:02:04.564Z,101750.36
2023-01-08T11:05:11.960Z,101747.65
2023-01-08T11:08:20.735Z,101743.53
2023-01-08T11:11:25.447Z,101741.62
2023-01-08T11:14:46.691Z,101737.50
2023-01-08T11:17:52.452Z,101745.45
2023-01-08T11:20:58.296Z,101752.91
2023-01-08T11:24:32.990Z,101743.07
2023-01-08T11:27:49.007Z,101739.59
2023-01-08T11:30:54.358Z,101740.81
2023-01-08T11:34:01.425Z,101754.84
2023-01-08T11:37:29.475Z,101740.64
2023-01-08T11:40:39.368Z,101738.97
2023-01-08T11:44:09.916Z,101750.91
2023-01-08T11:47:25.873Z,101755.66
2023-01-08T11:50:52.290Z,101753.09
2023-01-08T11:54:20.875Z,101761.09
2023-01-08T11:57:39.760Z,101757.38
2023-01-08T12:01:11.472Z,101750.78
2023-01-08T12:04:32.747Z,101754.30
2023-01-08T12:07:51.653Z,101750.42
2023-01-08T12:11:23.140Z,101745.61
2023-01-08T12:15:00.090Z,101748.22
2023-01-08T12:18:31.597Z,101751.13
2023-01-08T12:22:08.067Z,101746.51
2023-01-08T12:25:34.192Z,101746.56
2023-01-08T12:28:54.066Z,101738.94
2023-01-08T12:32:29.401Z,101744.87
2023-01-08T12:35:41.561Z,101739.94
2023-01-08T12:38:51.208Z,101743.59
2023-01-08T12:41:56.615Z,101745.80
2023-01-08T12:45:02.240Z,101746.09
2023-01-08T12:48:21.697Z,101743.04
2023-01-08T12:51:46.336Z,101741.63
2023-01-08T12:55:19.251Z,101731.66
2023-01-08T12:58:46.985Z,101739.06
2023-01-08T13:02:13.857Z,101745.66
2023-01-08T13:05:35.619Z,101740.56
2023-01-08T13:08:48.043Z,101750.10
2023-01-08T13:11:54.896Z,101750.91
2023-01-08T13:15:02.500Z,101756.12
2023-01-08T13:18:14.639Z,101760.97
2023-01-08T13:21:16.838Z,101755.02
2023-01-08T13:24:51.453Z,101751.58
2023-01-08T13:27:57.249Z,101763.70
2023-01-08T13:31:03.462Z,101757.38
2023-01-08T13:34:10.406Z,101760.20
2023-01-08T13:37:27.102Z,101757.16
2023-01-08T13:40:56.866Z,101761.86
2023-01-08T13:43:56.125Z,101761.84
2023-01-08T13:47:08.282Z,101771.91
2023-01-08T13:50:13.880Z,101769.73
2023-01-08T13:53:21.127Z,101772.20
2023-01-08T13:56:27.894Z,101767.35
2023-01-08T13:59:55.982Z,101760.70
2023-01-08T14:03:02.038Z,101761.68
2023-01-08T14:06:07.158Z,101760.97
2023-01-08T14:09:18.755Z,101761.25
2023-01-08T14:12:31.975Z,101758.61
2023-01-08T14:15:43.290Z,101754.71
2023-01-08T14:18:50.624Z,101756.19
2023-01-08T14:21:55.758Z,101753.73
2023-01-08T14:25:04.480Z,101749.23
2023-01-08T14:28:16.221Z,101749.03
2023-01-08T14:31:26.898Z,101751.36
2023-01-08T14:34:32.612Z,101754.89
2023-01-08T14:37:38.967Z,101757.56
2023-01-08T14:40:50.898Z,101759.01
2023-01-08T14:44:00.185Z,101758.77
2023-01-08T14:47:05.369Z,101755.14
2023-01-08T14:50:04.465Z,101759.64
2023-01-08T14:52:56.941Z,101755.79
2023-01-08T14:56:04.567Z,101747.06
2023-01-08T14:59:10.505Z,101745.23
2023-01-08T15:02:18.096Z,101749.84
2023-01-08T15:05:35.829Z,101752.05
2023-01-08T15:08:52.507Z,101748.14
2023-01-08T15:12:17.304Z,101759.53
2023-01-08T15:15:34.383Z,101763.58
2023-01-08T15:18:40.623Z,101758.81
2023-01-08T15:21:45.660Z,101765.63
2023-01-08T15:24:52.368Z,101765.94
2023-01-08T15:28:04.204Z,101764.97
2023-01-08T15:31:00.930Z,101760.66
2023-01-08T15:34:07.775Z,101761.34
2023-01-08T15:37:13.179Z,101761.34
2023-01-08T15:40:20.403Z,101762.77
2023-01-08T15:43:31.145Z,101764.52
2023-01-08T15:46:37.617Z,101763.64
2023-01-08T15:49:42.960Z,101763.28
2023-01-08T15:52:49.858Z,101762.27
2023-01-08T15:55:55.476Z,101765.31
2023-01-08T15:59:01.411Z,101769.75
2023-01-08T16:02:06.955Z,101770.67
2023-01-08T16:05:12.558Z,101767.59
2023-01-08T16:08:19.277Z,101768.18
2023-01-08T16:11:27.649Z,101768.22
2023-01-08T16:14:34.448Z,101765.34
2023-01-08T16:17:41.450Z,101763.84
2023-01-08T16:20:47.919Z,101771.08
2023-01-08T16:23:55.845Z,101770.84
2023-01-08T16:27:01.518Z,101777.27
2023-01-08T16:30:07.383Z,101777.04
2023-01-08T16:33:12.975Z,101780.20
2023-01-08T16:36:20.804Z,101777.95
2023-01-08T16:39:26.300Z,101779.16
2023-01-08T16:42:31.854Z,101783.50
2023-01-08T16:45:37.556Z,101781.91
2023-01-08T16:48:42.629Z,101781.12
2023-01-08T16:51:49.043Z,101790.52
2023-01-08T16:54:58.685Z,101782.48
2023-01-08T16:58:04.081Z,101785.78
2023-01-08T17:01:10.633Z,101784.08
2023-01-08T17:04:17.473Z,101788.02
2023-01-08T17:07:23.101Z,101788.23
2023-01-08T17:10:29.549Z,101786.03
2023-01-08T17:13:34.754Z,101793.88
2023-01-08T17:16:41.712Z,101791.47
2023-01-08T17:19:47.303Z,101787.02
2023-01-08T17:22:54.986Z,101787.98
2023-01-08T17:26:01.314Z,101784.95
2023-01-08T17:29:07.183Z,101785.86
2023-01-08T17:32:13.569Z,101786.02
2023-01-08T17:35:21.195Z,101776.56
2023-01-08T17:38:27.198Z,101785.87
2023-01-08T17:41:50.338Z,101787.11
2023-01-08T17:44:56.021Z,101783.20
2023-01-08T17:48:02.259Z,101794.96
2023-01-08T17:51:09.566Z,101800.04
2023-01-08T17:54:15.468Z,101795.50
2023-01-08T17:57:22.145Z,101795.75
2023-01-08T18:00:28.821Z,101798.53
2023-01-08T18:03:34.460Z,101794.80
2023-01-08T18:06:41.073Z,101797.83
2023-01-08T18:09:46.992Z,101805.56
2023-01-08T18:12:52.709Z,101808.47
2023-01-08T18:15:58.247Z,101807.92
2023-01-08T18:19:04.330Z,101798.61
2023-01-08T18:22:09.839Z,101802.38
2023-01-08T18:25:16.374Z,101803.71
2023-01-08T18:28:20.976Z,101817.50
2023-01-08T18:31:27.192Z,101822.27
2023-01-08T18:34:33.434Z,101816.11
2023-01-08T18:37:40.047Z,101807.30
2023-01-08T18:40:46.836Z,101801.64
2023-01-08T18:43:46.287Z,101795.98
2023-01-08T18:46:53.034Z,101801.16
2023-01-08T18:49:58.719Z,101797.20
2023-01-08T18:53:05.158Z,101793.14
2023-01-08T18:56:15.569Z,101798.34
2023-01-08T18:59:14.768Z,101798.42
2023-01-08T19:02:20.197Z,101788.98
2023-01-08T19:05:26.163Z,101788.95
2023-01-08T19:08:32.725Z,101781.86
2023-01-08T19:11:38.203Z,101784.52
2023-01-08T19:14:44.030Z,101783.75
2023-01-08T19:17:50.169Z,101786.44
2023-01-08T19:21:00.075Z,101788.88
2023-01-08T19:24:04.907Z,101787.16
2023-01-08T19:27:10.799Z,101786.83
2023-01-08T19:30:18.227Z,101782.00
2023-01-08T19:33:23.977Z,101783.84
2023-01-08T19:36:29.844Z,101777.18
2023-01-08T19:39:38.965Z,101781.38
2023-01-08T19:43:02.449Z,101789.46
2023-01-08T19:46:07.822Z,101787.83
2023-01-08T19:49:14.400Z,101784.85
2023-01-08T19:52:21.066Z,101793.34
2023-01-08T19:55:19.767Z,101795.52
2023-01-08T19:58:05.790Z,101805.28
2023-01-08T20:00:58.473Z,101809.26
2023-01-08T20:03:47.042Z,101811.94
2023-01-08T20:06:41.319Z,101815.03
2023-01-08T20:09:34.058Z,101825.60
2023-01-08T20:12:34.044Z,101825.73
2023-01-08T20:15:40.578Z,101829.63
2023-01-08T20:18:45.919Z,101831.78
2023-01-08T20:21:52.064Z,101836.68
2023-01-08T20:24:59.561Z,101838.41
2023-01-08T20:28:05.517Z,101840.19
2023-01-08T20:31:11.432Z,101840.91
2023-01-08T20:34:20.954Z,101845.06
2023-01-08T20:37:19.437Z,101850.10
2023-01-08T20:40:27.102Z,101845.97
2023-01-08T20:43:32.204Z,101842.66
2023-01-08T20:46:42.301Z,101844.94
2023-01-08T20:49:48.565Z,101844.14
2023-01-08T20:52:54.115Z,101846.86
2023-01-08T20:56:00.492Z,101843.28
2023-01-08T20:59:05.994Z,101846.64
2023-01-08T21:02:11.857Z,101853.33
2023-01-08T21:05:18.034Z,101851.20
2023-01-08T21:08:25.043Z,101856.75
2023-01-08T21:11:30.242Z,101859.91
2023-01-08T21:14:36.454Z,101858.37
2023-01-08T21:17:41.854Z,101859.67
2023-01-08T21:20:47.667Z,101863.39
2023-01-08T21:23:53.947Z,101864.55
2023-01-08T21:26:59.893Z,101865.69
2023-01-08T21:30:05.544Z,101856.14
2023-01-08T21:33:12.210Z,101847.31
2023-01-08T21:36:28.625Z,101834.22
2023-01-08T21:39:34.080Z,101839.59
2023-01-08T21:42:57.474Z,101846.22
2023-01-08T21:46:13.924Z,101831.05
2023-01-08T21:49:20.382Z,101830.27
2023-01-08T21:52:43.358Z,101828.52
2023-01-08T21:55:49.434Z,101834.35
2023-01-08T21:58:55.807Z,101832.42
2023-01-08T22:02:02.179Z,101832.02
2023-01-08T22:05:12.137Z,101842.22
2023-01-08T22:08:19.561Z,101833.39
2023-01-08T22:11:24.303Z,101832.53
2023-01-08T22:14:30.383Z,101837.45
2023-01-08T22:17:34.913Z,101838.53
2023-01-08T22:20:40.019Z,101836.86
2023-01-08T22:23:44.876Z,101831.41
2023-01-08T22:26:50.956Z,101837.09
2023-01-08T22:29:57.495Z,101832.23
2023-01-08T22:33:03.698Z,101830.44
2023-01-08T22:36:09.477Z,101820.77
2023-01-08T22:39:14.564Z,101822.12
2023-01-08T22:42:20.287Z,101810.48
2023-01-08T22:45:26.416Z,101809.63
2023-01-08T22:48:25.347Z,101812.25
2023-01-08T22:51:34.850Z,101821.14
2023-01-08T22:54:40.385Z,101823.12
2023-01-08T22:57:46.953Z,101818.30
2023-01-08T23:00:53.157Z,101827.02
2023-01-08T23:03:58.568Z,101832.30
2023-01-08T23:07:04.568Z,101826.89
2023-01-08T23:10:11.969Z,101823.36
2023-01-08T23:13:17.544Z,101820.30
2023-01-08T23:16:27.299Z,101814.13
2023-01-08T23:19:33.115Z,101816.31
2023-01-08T23:22:39.280Z,101817.27
2023-01-08T23:25:39.071Z,101813.26
2023-01-08T23:28:33.627Z,101809.66
2023-01-08T23:31:44.802Z,101806.92
2023-01-08T23:34:50.455Z,101810.80
2023-01-08T23:37:56.290Z,101810.89
2023-01-08T23:41:01.338Z,101810.38
2023-01-08T23:44:07.564Z,101809.97
2023-01-08T23:47:13.351Z,101801.05
2023-01-08T23:50:19.520Z,101806.26
2023-01-08T23:53:25.458Z,101806.63
2023-01-08T23:56:32.916Z,101808.00
2023-01-08T23:59:39.080Z,101814.66
